Briefing drone pour Annonay

Rechercher une autre localisation

Conditions de vol :


Nous sommes le : Samedi 04 décembre 2021
Il est 23:15 UTC (00:15 LT)

Lever de soleil : 06:37 UTC (07:37 LT)
Coucher de soleil : 16:25 UTC (17:25 LT)


Warning: min(): Array must contain at least one element in /homepages/6/d509196549/htdocs/briefdrone/includes/function/metar/metar.php on line 1265

Météo

L'essentiel des conditions de vol

VIGILANCE MÉTÉO FRANCE - Ardèche (07)
Pas de vigilances particulieres
CARTE TEMSI
CARTES DES FRONTS
METAR de LFMH
LFMH 032300Z AUTO 18011KT 9999 ///TCU 07/04 Q1012

Date d'émission: 03/12/2021
Heure d'émission: 23:00 UTC
Vent: 180° pour 11 KT (20 km/h)
Visibilité horizontale: > 10 km
Température: 7 °C
Point de rosée: 4 °C
Humidité: 81%
Pression (QNH): 1012 hPa
TAF de LFMH
LFMH 161901Z 1619/1712 CNL

Conditions prévues :

Heure d'émission : Bulletin éffectué le 16 à 19:00 UTC
Prévision : Valide du 16 a 19:00 UTC au 17 a 12:00 UTC
Nuages : à 0ft (0 m)
WEBCAM POUR ANNONAY

Réglementation

Voler en sécurité

CARTES AERONAUTIQUE 1/500.000
CARTES VAC (LFMH)
SUP AIP




Chargement des AIP...
NOTAM (ANNONAY + Terrain à proximité / FIR )




Chargement des NOTAMS...
CONTACT PREFECTURE 07


Avertissement : Les données mises à disposition sont indicatives. Oxygène Drone ne pourra être tenu responsable de dégâts causés aux biens et aux personnes.